• Join FlightAware (Why Join?)
  • Login
  • US Flag 
10:24AM EDT


 

Airport Tracker/Info


-or-


 

Live Flight TrackerFlight Track Log ✈ UAL1004 ✈ 01-Jul-2013 ✈ KLAX - PHTO / ITO

Flight Track Log - Related Links

Times and Time Zones

All times are in EDT time to prevent confusion due to time zone crossing. See the UAL1004 flight status page for this flight to view local times or setup timezone preferences in your user account.

Time Position Orientation Groundspeed Altitude Reporting Facility
EDT Latitude Longitude Course Direction KTS MPH feet Rate Location/Type
09:12PM 33.9289 -118.4508 265° West 196 226 1,500  Level Los Angeles Center
09:13PM 33.8944 -118.5125 236° Southwest 226 260 3,000 1,860 Climbing Los Angeles Center
09:14PM 33.8494 -118.5881 234° Southwest 256 295 5,400 1,920 Climbing Los Angeles Center
09:15PM 33.8895 -118.8753 253° West  Level FlightAware Approximate
09:15PM 33.8083 -118.6564 234° Southwest 273 314 7,000  Level Los Angeles Center
09:16PM 33.8720 -119.0363 264° West  Level FlightAware Approximate
09:17PM 33.8615 -119.1980 259° West  Level FlightAware Approximate
09:17PM 33.7825 -118.7503 252° West 300 345 9,200  Level Los Angeles Center
09:18PM 33.8429 -119.3589 265° West  Level FlightAware Approximate
09:18PM 33.7072 -118.8375 224° Southwest 316 364 11,000  Level Los Angeles Center
09:19PM 33.6358 -118.9261 226° Southwest 375 432 12,000 1,140 Climbing Los Angeles Center
09:20PM 33.5569 -119.0225 226° Southwest 407 468 13,400 1,500 Climbing Los Angeles Center
09:21PM 33.4767 -119.1222 226° Southwest 416 479 15,100 1,800 Climbing Los Angeles Center
09:22PM 33.3889 -119.2275 225° Southwest 427 491 17,200 1,800 Climbing Los Angeles Center
09:23PM 33.3069 -119.3278 226° Southwest 436 502 18,900 1,620 Climbing Los Angeles Center
09:24PM 33.2008 -119.4556 225° Southwest 451 519 20,600 1,320 Climbing Los Angeles Center
09:25PM 33.1444 -119.5581 237° Southwest 464 534 21,700 1,200 Climbing Los Angeles Center
09:26PM 33.0678 -119.7219 241° Southwest 471 542 23,200 1,140 Climbing Los Angeles Center
09:27PM 33.0006 -119.8617 240° Southwest 484 557 24,400 1,140 Climbing Los Angeles Center
09:28PM 32.9156 -120.0372 240° Southwest 488 562 25,800 1,080 Climbing Los Angeles Center
09:29PM 32.8453 -120.1789 239° Southwest 494 568 26,700 900 Climbing Los Angeles Center
09:30PM 32.7756 -120.3231 240° Southwest 500 575 27,700 1,200 Climbing Los Angeles Center
09:31PM 32.7058 -120.4656 240° Southwest 500 575 29,200 1,200 Climbing Los Angeles Center
09:32PM 32.6367 -120.6064 240° Southwest 495 570 30,300 1,020 Climbing Los Angeles Center
09:33PM 32.5539 -120.7714 239° Southwest 488 562 31,400 1,080 Climbing Los Angeles Center
09:34PM 32.4844 -120.9092 239° Southwest 487 560 32,600 1,020 Climbing Los Angeles Center
09:35PM 32.4172 -121.0486 240° Southwest 487 560 33,500 660 Climbing Los Angeles Center
09:36PM 32.3486 -121.1831 239° Southwest 482 555 34,000 240 Climbing Los Angeles Center
09:37PM 32.2811 -121.3186 240° Southwest 481 554 34,000  Level Los Angeles Center
09:38PM 32.2133 -121.4547 240° Southwest 481 554 34,000 -60 Level Los Angeles Center
09:39PM 32.1453 -121.5900 239° Southwest 480 552 33,900  Descending Los Angeles Center
09:41PM 32.0753 -121.7387 241° Southwest  Level FlightAware Approximate
09:48PM 31.6143 -122.6355 238° Southwest  Level FlightAware Approximate
09:49PM 31.5464 -122.7616 238° Southwest  Level FlightAware Approximate
09:50PM 31.4786 -122.8878 238° Southwest  Level FlightAware Approximate
09:51PM 31.4110 -123.0140 238° Southwest  Level FlightAware Approximate
09:52PM 31.3433 -123.1400 238° Southwest  Level FlightAware Approximate
09:53PM 31.2754 -123.2658 238° Southwest  Level FlightAware Approximate
09:54PM 31.2074 -123.3915 238° Southwest  Level FlightAware Approximate
09:55PM 31.1331 -123.5115 229° Southwest  Level FlightAware Approximate
09:56PM 31.0915 -123.6491 256° West  Level FlightAware Approximate
09:56PM 31.1333 -123.5500 256° West 484 557 34,000  Level Oakland Oceanic (ODAPS)
09:57PM 31.0602 -123.7930 256° West  Level FlightAware Approximate
09:58PM 31.0286 -123.9367 256° West  Level FlightAware Approximate
09:59PM 30.9969 -124.0804 256° West  Level FlightAware Approximate
10:00PM 30.9651 -124.2239 256° West  Level FlightAware Approximate
10:01PM 30.9331 -124.3674 255° West  Level FlightAware Approximate
10:02PM 30.8635 -124.7635 255° West 484 557 34,000  Level FlightAware Transoceanic
10:03PM 30.8290 -124.9147 255° West 484 557 34,000  Level FlightAware Transoceanic
10:04PM 30.7943 -125.0658 255° West 484 557 34,000  Level FlightAware Transoceanic
10:05PM 30.7594 -125.2167 255° West 484 557 34,000  Level FlightAware Transoceanic
10:06PM 30.7243 -125.3676 255° West 484 557 34,000  Level FlightAware Transoceanic
10:07PM 30.6891 -125.5183 255° West 484 557 34,000  Level FlightAware Transoceanic
10:08PM 30.6537 -125.6690 255° West 484 557 34,000  Level FlightAware Transoceanic
10:09PM 30.6181 -125.8195 255° West 484 557 34,000  Level FlightAware Transoceanic
10:10PM 30.5824 -125.9700 255° West 484 557 34,000  Level FlightAware Transoceanic
10:11PM 30.5465 -126.1203 254° West 484 557 34,000  Level FlightAware Transoceanic
10:12PM 30.5104 -126.2705 254° West 484 557 34,000  Level FlightAware Transoceanic
10:13PM 30.4741 -126.4206 254° West 484 557 34,000  Level FlightAware Transoceanic
10:14PM 30.4377 -126.5706 254° West 484 557 34,000  Level FlightAware Transoceanic
10:15PM 30.4011 -126.7204 254° West 484 557 34,000  Level FlightAware Transoceanic
10:16PM 30.3643 -126.8702 254° West 484 557 34,000  Level FlightAware Transoceanic
10:17PM 30.3274 -127.0198 254° West 484 557 34,000  Level FlightAware Transoceanic
10:18PM 30.2902 -127.1694 254° West 484 557 34,000  Level FlightAware Transoceanic
10:19PM 30.2529 -127.3188 254° West 484 557 34,000  Level FlightAware Transoceanic
10:20PM 30.2155 -127.4681 254° West 484 557 34,000  Level FlightAware Transoceanic
10:21PM 30.1779 -127.6173 254° West 484 557 34,000  Level FlightAware Transoceanic
10:22PM 30.1401 -127.7663 254° West 484 557 34,000  Level FlightAware Transoceanic
10:23PM 30.1021 -127.9153 254° West 484 557 34,000  Level FlightAware Transoceanic
10:24PM 30.0640 -128.0642 253° West 484 557 34,000  Level FlightAware Transoceanic
10:25PM 30.0257 -128.2129 253° West 484 557 34,000  Level FlightAware Transoceanic
10:26PM 29.9872 -128.3615 253° West 484 557 34,000  Level FlightAware Transoceanic
10:27PM 29.9486 -128.5100 253° West 484 557 34,000  Level FlightAware Transoceanic
10:28PM 29.9098 -128.6584 253° West 484 557 34,000  Level FlightAware Transoceanic
10:29PM 29.8708 -128.8067 253° West 484 557 34,000  Level FlightAware Transoceanic
10:30PM 29.8317 -128.9548 253° West 484 557 34,000  Level FlightAware Transoceanic
10:31PM 29.7924 -129.1028 253° West 484 557 34,000  Level FlightAware Transoceanic
10:32PM 29.7529 -129.2508 253° West 484 557 34,000  Level FlightAware Transoceanic
10:33PM 29.7133 -129.3986 253° West 484 557 34,000  Level FlightAware Transoceanic
10:34PM 29.6735 -129.5463 253° West 484 557 34,000  Level FlightAware Transoceanic
10:35PM 29.6335 -129.6938 253° West 484 557 34,000  Level FlightAware Transoceanic
10:36PM 29.5934 -129.8413 253° West 484 557 34,000  Level FlightAware Transoceanic
10:37PM 29.5532 -129.9886 253° West 484 557 34,000  Level FlightAware Transoceanic
10:38PM 29.5127 -130.1358 252° West 484 557 34,000  Level FlightAware Transoceanic
10:39PM 29.4721 -130.2829 252° West 484 557 34,000  Level FlightAware Transoceanic
10:40PM 29.4313 -130.4299 252° West 484 557 34,000  Level FlightAware Transoceanic
10:41PM 29.3904 -130.5768 252° West 484 557 34,000  Level FlightAware Transoceanic
10:42PM 29.3493 -130.7235 252° West 484 557 34,000  Level FlightAware Transoceanic
10:43PM 29.3081 -130.8702 252° West 484 557 34,000  Level FlightAware Transoceanic
10:44PM 29.2667 -131.0167 252° West 484 557 34,000  Level FlightAware Transoceanic
10:45PM 29.2282 -131.1524 252° West 484 557 34,000  Level FlightAware Transoceanic
10:46PM 29.1895 -131.2881 252° West 484 557 34,000  Level FlightAware Transoceanic
10:47PM 29.1508 -131.4237 252° West 484 557 34,000  Level FlightAware Transoceanic
10:48PM 29.1119 -131.5591 252° West 484 557 34,000  Level FlightAware Transoceanic
10:49PM 29.0728 -131.6945 252° West 484 557 34,000  Level FlightAware Transoceanic
10:50PM 29.0337 -131.8298 252° West 484 557 34,000 1,080 Level FlightAware Transoceanic
10:50PM 29.2667 -131.0167 252° West 449 517 36,000  Climbing Oakland Oceanic (ODAPS)
10:51PM 28.9944 -131.9649 252° West 484 557 34,000 -1,740 Descending FlightAware Transoceanic
10:52PM 28.9549 -132.1000 252° West 484 557 34,000  Level FlightAware Transoceanic
10:53PM 28.9153 -132.2349 251° West 484 557 34,000  Level FlightAware Transoceanic
10:54PM 28.8756 -132.3698 251° West 484 557 34,000  Level FlightAware Transoceanic
10:55PM 28.8358 -132.5045 251° West 484 557 34,000  Level FlightAware Transoceanic
10:56PM 28.7958 -132.6392 251° West 484 557 34,000 960 Level FlightAware Transoceanic
10:57PM 28.8358 -132.5045 251° West 449 517 36,000 960 Climbing FlightAware Transoceanic
10:58PM 28.7958 -132.6392 251° West 449 517 36,000  Level FlightAware Transoceanic
10:59PM 28.7557 -132.7737 251° West 449 517 36,000  Level FlightAware Transoceanic
11:00PM 28.7154 -132.9082 251° West 449 517 36,000  Level FlightAware Transoceanic
11:01PM 28.6750 -133.0425 251° West 449 517 36,000  Level FlightAware Transoceanic
11:02PM 28.6345 -133.1767 251° West 449 517 36,000  Level FlightAware Transoceanic
11:03PM 28.5939 -133.3109 251° West 449 517 36,000  Level FlightAware Transoceanic
11:04PM 28.5531 -133.4449 251° West 449 517 36,000  Level FlightAware Transoceanic
11:05PM 28.5122 -133.5788 251° West 449 517 36,000  Level FlightAware Transoceanic
11:06PM 28.4711 -133.7126 251° West 449 517 36,000  Level FlightAware Transoceanic
11:07PM 28.4300 -133.8463 251° West 449 517 36,000  Level FlightAware Transoceanic
11:08PM 28.3887 -133.9799 251° West 449 517 36,000  Level FlightAware Transoceanic
11:09PM 28.3472 -134.1134 251° West 449 517 36,000  Level FlightAware Transoceanic
11:10PM 28.3057 -134.2468 250° West 449 517 36,000  Level FlightAware Transoceanic
11:11PM 28.2640 -134.3801 250° West 449 517 36,000  Level FlightAware Transoceanic
11:12PM 28.2222 -134.5133 250° West 449 517 36,000  Level FlightAware Transoceanic
11:13PM 28.1802 -134.6464 250° West 449 517 36,000  Level FlightAware Transoceanic
11:14PM 28.1381 -134.7793 250° West 449 517 36,000  Level FlightAware Transoceanic
11:15PM 28.0959 -134.9122 250° West 449 517 36,000  Level FlightAware Transoceanic
11:16PM 28.0536 -135.0450 250° West 449 517 36,000  Level FlightAware Transoceanic
11:17PM 28.0111 -135.1777 250° West 449 517 36,000  Level FlightAware Transoceanic
11:18PM 27.9685 -135.3102 250° West 449 517 36,000  Level FlightAware Transoceanic
11:19PM 27.9258 -135.4427 250° West 449 517 36,000  Level FlightAware Transoceanic
11:20PM 27.8830 -135.5750 250° West 449 517 36,000  Level FlightAware Transoceanic
11:21PM 27.8400 -135.7073 250° West 449 517 36,000  Level FlightAware Transoceanic
11:22PM 27.7969 -135.8394 250° West 449 517 36,000  Level FlightAware Transoceanic
11:23PM 27.7537 -135.9715 250° West 449 517 36,000  Level FlightAware Transoceanic
11:24PM 27.7103 -136.1034 250° West 449 517 36,000  Level FlightAware Transoceanic
11:25PM 27.6668 -136.2352 250° West 449 517 36,000  Level FlightAware Transoceanic
11:26PM 27.6232 -136.3669 249° West 449 517 36,000  Level FlightAware Transoceanic
11:27PM 27.5795 -136.4986 249° West 449 517 36,000  Level FlightAware Transoceanic
11:28PM 27.5357 -136.6301 249° West 449 517 36,000  Level FlightAware Transoceanic
11:29PM 27.4917 -136.7615 249° West 449 517 36,000  Level FlightAware Transoceanic
11:30PM 27.4476 -136.8928 249° West 449 517 36,000  Level FlightAware Transoceanic
11:31PM 27.4034 -137.0240 249° West 449 517 36,000  Level FlightAware Transoceanic
11:32PM 27.3591 -137.1550 249° West 449 517 36,000  Level FlightAware Transoceanic
11:33PM 27.3146 -137.2860 249° West 449 517 36,000  Level FlightAware Transoceanic
11:34PM 27.2700 -137.4169 249° West 449 517 36,000  Level FlightAware Transoceanic
11:35PM 27.2253 -137.5477 249° West 449 517 36,000  Level FlightAware Transoceanic
11:36PM 27.1805 -137.6784 249° West 449 517 36,000  Level FlightAware Transoceanic
11:37PM 27.1356 -137.8089 249° West 449 517 36,000  Level FlightAware Transoceanic
11:38PM 27.0905 -137.9394 249° West 449 517 36,000  Level FlightAware Transoceanic
11:39PM 27.0453 -138.0697 249° West 449 517 36,000  Level FlightAware Transoceanic
11:40PM 27.0000 -138.2000 249° West 449 517 36,000  Level FlightAware Transoceanic
11:41PM 26.9524 -138.3358 249° West 449 517 36,000  Level FlightAware Transoceanic
11:42PM 26.9048 -138.4716 248° West 449 517 36,000  Level FlightAware Transoceanic
11:43PM 26.8569 -138.6072 248° West 449 517 36,000  Level FlightAware Transoceanic
11:44PM 26.8090 -138.7427 248° West 449 517 36,000  Level FlightAware Transoceanic
11:45PM 26.7609 -138.8781 248° West 449 517 36,000  Level FlightAware Transoceanic
11:46PM 26.7127 -139.0134 248° West 449 517 36,000  Level FlightAware Transoceanic
11:46PM 27.0000 -138.2000 249° West 468 539 36,000  Level Oakland Oceanic (ODAPS)
11:47PM 26.6644 -139.1486 248° West 449 517 36,000  Level FlightAware Transoceanic
11:48PM 26.6159 -139.2836 248° West 449 517 36,000  Level FlightAware Transoceanic
11:49PM 26.5673 -139.4186 248° West 449 517 36,000  Level FlightAware Transoceanic
11:50PM 26.5186 -139.5534 248° West 449 517 36,000  Level FlightAware Transoceanic
11:51PM 26.4698 -139.6881 248° West 449 517 36,000  Level FlightAware Transoceanic
11:52PM 26.4208 -139.8227 248° West 449 517 36,000  Level FlightAware Transoceanic
11:53PM 26.4698 -139.6881 248° West 468 539 36,000  Level FlightAware Transoceanic
11:54PM 26.4208 -139.8227 248° West 468 539 36,000  Level FlightAware Transoceanic
11:55PM 26.3717 -139.9572 248° West 468 539 36,000  Level FlightAware Transoceanic
11:56PM 26.3225 -140.0915 248° West 468 539 36,000  Level FlightAware Transoceanic
11:57PM 26.2732 -140.2258 248° West 468 539 36,000  Level FlightAware Transoceanic
11:58PM 26.2237 -140.3599 248° West 468 539 36,000  Level FlightAware Transoceanic
11:59PM 26.1741 -140.4939 248° West 468 539 36,000  Level FlightAware Transoceanic
12:00AM 26.1244 -140.6279 248° West 468 539 36,000  Level FlightAware Transoceanic
12:01AM 26.0746 -140.7616 247° West 468 539 36,000  Level FlightAware Transoceanic
12:02AM 26.0246 -140.8953 247° West 468 539 36,000  Level FlightAware Transoceanic
12:03AM 25.9745 -141.0289 247° West 468 539 36,000  Level FlightAware Transoceanic
12:04AM 25.9243 -141.1623 247° West 468 539 36,000  Level FlightAware Transoceanic
12:05AM 25.8740 -141.2957 247° West 468 539 36,000  Level FlightAware Transoceanic
12:06AM 25.8235 -141.4289 247° West 468 539 36,000  Level FlightAware Transoceanic
12:07AM 25.7729 -141.5620 247° West 468 539 36,000  Level FlightAware Transoceanic
12:08AM 25.7222 -141.6950 247° West 468 539 36,000  Level FlightAware Transoceanic
12:09AM 25.6714 -141.8279 247° West 468 539 36,000  Level FlightAware Transoceanic
12:10AM 25.6205 -141.9607 247° West 468 539 36,000  Level FlightAware Transoceanic
12:11AM 25.5694 -142.0933 247° West 468 539 36,000  Level FlightAware Transoceanic
12:12AM 25.5183 -142.2259 247° West 468 539 36,000  Level FlightAware Transoceanic
12:13AM 25.4670 -142.3583 247° West 468 539 36,000  Level FlightAware Transoceanic
12:14AM 25.4156 -142.4906 247° West 468 539 36,000  Level FlightAware Transoceanic
12:15AM 25.3640 -142.6228 247° West 468 539 36,000  Level FlightAware Transoceanic
12:16AM 25.3124 -142.7549 247° West 468 539 36,000  Level FlightAware Transoceanic
12:17AM 25.2606 -142.8869 247° West 468 539 36,000  Level FlightAware Transoceanic
12:18AM 25.2087 -143.0188 246° West 468 539 36,000  Level FlightAware Transoceanic
12:19AM 25.1567 -143.1505 246° West 468 539 36,000  Level FlightAware Transoceanic
12:20AM 25.1046 -143.2822 246° West 468 539 36,000  Level FlightAware Transoceanic
12:21AM 25.0524 -143.4137 246° West 468 539 36,000  Level FlightAware Transoceanic
12:22AM 25.0000 -143.5451 246° West 468 539 36,000  Level FlightAware Transoceanic
12:23AM 24.9476 -143.6764 246° West 468 539 36,000  Level FlightAware Transoceanic
12:24AM 24.8950 -143.8076 246° West 468 539 36,000  Level FlightAware Transoceanic
12:25AM 24.8423 -143.9387 246° West 468 539 36,000  Level FlightAware Transoceanic
12:26AM 24.7895 -144.0697 246° West 468 539 36,000  Level FlightAware Transoceanic
12:27AM 24.7366 -144.2005 246° West 468 539 36,000  Level FlightAware Transoceanic
12:28AM 24.6835 -144.3313 246° West 468 539 36,000  Level FlightAware Transoceanic
12:29AM 24.6304 -144.4619 246° West 468 539 36,000  Level FlightAware Transoceanic
12:30AM 24.5771 -144.5924 246° West 468 539 36,000  Level FlightAware Transoceanic
12:31AM 24.5238 -144.7228 246° West 468 539 36,000  Level FlightAware Transoceanic
12:32AM 24.4703 -144.8531 246° West 468 539 36,000  Level FlightAware Transoceanic
12:33AM 24.4167 -144.9833 246° West 468 539 36,000  Level FlightAware Transoceanic
12:34AM 24.3597 -145.1212 246° West 468 539 36,000  Level FlightAware Transoceanic
12:34AM 24.4167 -144.9833 246° West 496 571 36,000  Level Oakland Oceanic (ODAPS)
12:35AM 24.3026 -145.2590 246° West 468 539 36,000  Level FlightAware Transoceanic
12:36AM 24.2454 -145.3967 245° Southwest 468 539 36,000  Level FlightAware Transoceanic
12:37AM 24.1881 -145.5343 245° Southwest 468 539 36,000  Level FlightAware Transoceanic
12:38AM 24.1307 -145.6717 245° Southwest 468 539 36,000  Level FlightAware Transoceanic
12:39AM 24.0731 -145.8090 245° Southwest 468 539 36,000  Level FlightAware Transoceanic
12:40AM 24.0154 -145.9462 245° Southwest 468 539 36,000  Level FlightAware Transoceanic
12:41AM 23.8997 -146.2201 245° Southwest 496 571 36,000  Level FlightAware Transoceanic
12:42AM 23.8416 -146.3569 245° Southwest 496 571 36,000  Level FlightAware Transoceanic
12:43AM 23.7834 -146.4936 245° Southwest 496 571 36,000  Level FlightAware Transoceanic
12:44AM 23.7251 -146.6302 245° Southwest 496 571 36,000  Level FlightAware Transoceanic
12:45AM 23.6667 -146.7666 245° Southwest 496 571 36,000  Level FlightAware Transoceanic
12:46AM 23.6082 -146.9029 245° Southwest 496 571 36,000  Level FlightAware Transoceanic
12:47AM 23.5495 -147.0391 245° Southwest 496 571 36,000  Level FlightAware Transoceanic
12:48AM 23.4907 -147.1752 245° Southwest 496 571 36,000  Level FlightAware Transoceanic
12:49AM 23.4319 -147.3112 245° Southwest 496 571 36,000  Level FlightAware Transoceanic
12:50AM 23.3728 -147.4470 245° Southwest 496 571 36,000  Level FlightAware Transoceanic
12:51AM 23.3137 -147.5827 245° Southwest 496 571 36,000  Level FlightAware Transoceanic
12:52AM 23.2545 -147.7183 245° Southwest 496 571 36,000  Level FlightAware Transoceanic
12:53AM 23.1951 -147.8538 244° Southwest 496 571 36,000  Level FlightAware Transoceanic
12:54AM 23.1356 -147.9891 244° Southwest 496 571 36,000  Level FlightAware Transoceanic
12:55AM 23.0760 -148.1243 244° Southwest 496 571 36,000  Level FlightAware Transoceanic
12:56AM 23.0163 -148.2594 244° Southwest 496 571 36,000  Level FlightAware Transoceanic
12:57AM 22.9565 -148.3944 244° Southwest 496 571 36,000  Level FlightAware Transoceanic
12:58AM 22.8966 -148.5293 244° Southwest 496 571 36,000  Level FlightAware Transoceanic
12:59AM 22.8365 -148.6640 244° Southwest 496 571 36,000  Level FlightAware Transoceanic
01:00AM 22.7764 -148.7987 244° Southwest 496 571 36,000  Level FlightAware Transoceanic
01:01AM 22.7161 -148.9332 244° Southwest 496 571 36,000  Level FlightAware Transoceanic
01:02AM 22.6557 -149.0676 244° Southwest 496 571 36,000  Level FlightAware Transoceanic
01:03AM 22.5952 -149.2019 244° Southwest 496 571 36,000  Level FlightAware Transoceanic
01:04AM 22.5346 -149.3360 244° Southwest 496 571 36,000  Level FlightAware Transoceanic
01:05AM 22.4739 -149.4700 244° Southwest 496 571 36,000  Level FlightAware Transoceanic
01:06AM 22.4130 -149.6040 244° Southwest 496 571 36,000  Level FlightAware Transoceanic
01:07AM 22.3521 -149.7378 244° Southwest 496 571 36,000  Level FlightAware Transoceanic
01:08AM 22.2910 -149.8715 244° Southwest 496 571 36,000  Level FlightAware Transoceanic
01:09AM 22.2299 -150.0050 244° Southwest 496 571 36,000  Level FlightAware Transoceanic
01:10AM 22.1686 -150.1385 244° Southwest 496 571 36,000  Level FlightAware Transoceanic
01:11AM 22.1072 -150.2718 244° Southwest 496 571 36,000  Level FlightAware Transoceanic
01:12AM 22.0457 -150.4050 243° Southwest 496 571 36,000  Level FlightAware Transoceanic
01:13AM 21.9841 -150.5381 243° Southwest 496 571 36,000  Level FlightAware Transoceanic
01:14AM 21.9224 -150.6711 243° Southwest 496 571 36,000  Level FlightAware Transoceanic
01:15AM 21.8606 -150.8040 243° Southwest 496 571 36,000  Level FlightAware Transoceanic
01:16AM 21.7987 -150.9368 243° Southwest 496 571 36,000  Level FlightAware Transoceanic
01:17AM 21.7367 -151.0694 243° Southwest 496 571 36,000  Level FlightAware Transoceanic
01:18AM 21.6746 -151.2020 243° Southwest 496 571 36,000  Level FlightAware Transoceanic
01:19AM 21.6123 -151.3344 243° Southwest 496 571 36,000  Level FlightAware Transoceanic
01:19AM 21.5833 -151.4000 242° Southwest 500 575 36,000  Level Honolulu Center
01:20AM 21.5500 -151.4667 243° Southwest 496 571 36,000  Level FlightAware Transoceanic
01:21AM 21.4880 -151.5950 243° Southwest 496 571 36,000  Level FlightAware Transoceanic
01:21AM 21.4500 -151.6667 242° Southwest 490 564 36,000  Level Honolulu Center
01:22AM 21.4260 -151.7233 243° Southwest 496 571 36,000  Level FlightAware Transoceanic
01:22AM 21.3833 -151.7833 238° Southwest 490 564 36,000  Level Honolulu Center
01:23AM 21.3638 -151.8515 242° Southwest 496 571 36,000  Level FlightAware Transoceanic
01:23AM 21.3167 -151.9167 242° Southwest 500 575 36,000  Level Honolulu Center
01:24AM 21.3015 -151.9795 242° Southwest 496 571 36,000  Level FlightAware Transoceanic
01:24AM 21.2500 -152.0500 242° Southwest 490 564 36,000  Level Honolulu Center
01:25AM 21.1833 -152.1500 234° Southwest 490 564 36,000  Level Honolulu Center
01:26AM 21.1167 -152.3000 245° Southwest 490 564 36,000  Level Honolulu Center
01:27AM 21.0500 -152.4333 242° Southwest 490 564 36,000  Level Honolulu Center
01:28AM 20.9833 -152.5500 239° Southwest 490 564 36,000  Level Honolulu Center
01:29AM 20.9167 -152.6833 242° Southwest 490 564 36,000  Level Honolulu Center
01:30AM 20.8500 -152.8167 242° Southwest 490 564 36,000  Level Honolulu Center
01:31AM 20.7833 -152.9333 239° Southwest 490 564 36,000 -180 Level Honolulu Center
01:32AM 20.7000 -153.0667 236° Southwest 490 564 35,700 -1,800 Descending Honolulu Center
01:33AM 20.6333 -153.2000 242° Southwest 490 564 32,400 -3,360 Descending Honolulu Center
01:34AM 20.5667 -153.3167 239° Southwest 510 587 29,000 -3,480 Descending Honolulu Center
01:35AM 20.5000 -153.4500 242° Southwest 500 575 25,500 -2,940 Descending Honolulu Center
01:36AM 20.4333 -153.5833 242° Southwest 480 552 23,100 -2,580 Descending Honolulu Center
01:37AM 20.3667 -153.7000 239° Southwest 460 529 20,300 -2,700 Descending Honolulu Center
01:38AM 20.3167 -153.8167 245° Southwest 450 518 17,700 -2,460 Descending Honolulu Center
01:39AM 20.2500 -153.9333 239° Southwest 430 495 15,400 -2,460 Descending Honolulu Center
01:40AM 20.2000 -154.0333 242° Southwest 410 472 12,800 -2,580 Descending Honolulu Center
01:41AM 20.1333 -154.1333 235° Southwest 390 449 10,300 -1,500 Descending Honolulu Center
01:42AM 20.0833 -154.2167 237° Southwest 340 391 9,800 -660 Descending Honolulu Center
01:43AM 20.0500 -154.3000 247° West 300 345 9,000 -1,080 Descending Honolulu Center
01:44AM 20.0000 -154.3833 237° Southwest 300 345 7,700 -1,440 Descending Honolulu Center
01:45AM 19.9500 -154.4667 237° Southwest 290 334 6,200 -1,320 Descending Honolulu Center
01:46AM 19.9167 -154.5333 242° Southwest 290 334 5,100 -1,080 Descending Honolulu Center
01:47AM 19.8833 -154.6167 247° West 280 322 4,100 -1,020 Descending Honolulu Center
01:48AM 19.8333 -154.6833 231° Southwest 280 322 3,100 -1,020 Descending Honolulu Center
01:49AM 19.8000 -154.7500 242° Southwest 280 322 2,100 -660 Descending Honolulu Center
01:50AM 19.7667 -154.8167 242° Southwest 270 311 1,800 -180 Descending Honolulu Center
01:51AM 19.7333 -154.8833 242° Southwest 220 253 1,800 -240 Level Honolulu Center
01:52AM 19.7167 -154.9333 251° West 200 230 1,400 -600 Descending Honolulu Center
01:53AM 19.7167 -154.9833 270° West 150 173 600 -840 Descending Honolulu Center